Time;durP1;ratioP1;P1;durP2;ratioP2;P2;SDS_P1;SDS_P2;PMS_P1;PMS_P2;Temp;Humidity;BMP_temperature;BMP_pressure;BME280_temperature;BME280_humidity;BME280_pressure;Samples;Min_cycle;Max_cycle;Signal;HPM_P1;HPM_P2
2020/12/16 00:02:19;;;;;;;26.30;17.50;;;9.10;97.00;;;;;;5065721;28;20032;-41
2020/12/16 00:04:46;;;;;;;30.27;20.05;;;9.00;97.00;;;;;;5066415;28;20066;-43
2020/12/16 00:07:12;;;;;;;26.95;18.35;;;9.00;97.00;;;;;;5065931;28;20116;-43
2020/12/16 00:09:37;;;;;;;32.08;18.52;;;9.00;97.10;;;;;;5066102;28;20120;-43
2020/12/16 00:12:03;;;;;;;36.80;19.88;;;9.00;97.10;;;;;;5066793;28;20426;-42
2020/12/16 00:14:28;;;;;;;30.80;18.70;;;9.10;97.10;;;;;;5065678;28;20418;-43
2020/12/16 00:16:54;;;;;;;28.30;18.65;;;9.10;97.00;;;;;;5066275;28;20472;-43
2020/12/16 00:19:19;;;;;;;31.90;19.40;;;9.10;97.00;;;;;;5065692;28;20062;-43
2020/12/16 00:21:45;;;;;;;33.25;20.08;;;9.10;97.00;;;;;;5066422;28;20032;-43
2020/12/16 00:24:11;;;;;;;31.40;19.23;;;9.20;97.30;;;;;;5065528;28;20593;-42
2020/12/16 00:26:36;;;;;;;32.35;19.48;;;9.10;97.00;;;;;;5066136;28;20474;-42
2020/12/16 00:29:02;;;;;;;28.48;18.75;;;9.10;97.00;;;;;;5068287;28;20020;-43
2020/12/16 00:31:27;;;;;;;31.10;20.90;;;9.20;97.00;;;;;;5068798;28;20491;-42
2020/12/16 00:33:53;;;;;;;30.88;18.75;;;9.20;97.00;;;;;;5069720;28;20174;-44
2020/12/16 00:36:18;;;;;;;29.92;19.40;;;9.10;96.90;;;;;;5069262;28;20039;-42
2020/12/16 00:38:45;;;;;;;32.42;19.30;;;9.10;96.90;;;;;;5069691;28;20025;-42
2020/12/16 00:41:11;;;;;;;34.60;20.15;;;9.10;96.90;;;;;;5069147;28;20021;-43
2020/12/16 00:43:36;;;;;;;24.35;16.27;;;9.10;96.90;;;;;;5069661;28;20024;-42
2020/12/16 00:46:02;;;;;;;38.03;19.38;;;9.10;96.90;;;;;;5069248;28;20512;-42
2020/12/16 00:48:27;;;;;;;34.08;20.48;;;9.10;96.90;;;;;;5065864;28;20028;-43
2020/12/16 00:50:53;;;;;;;37.60;19.08;;;9.00;96.90;;;;;;5069496;28;20170;-42
2020/12/16 00:53:18;;;;;;;37.00;19.40;;;9.00;96.90;;;;;;5068471;28;20094;-43
2020/12/16 00:55:44;;;;;;;33.45;19.60;;;9.00;97.00;;;;;;5069338;28;20127;-42
2020/12/16 00:58:10;;;;;;;23.98;17.17;;;9.00;97.00;;;;;;5068824;28;20162;-44
2020/12/16 01:00:35;;;;;;;30.02;18.80;;;9.10;96.90;;;;;;5069145;28;20427;-43
2020/12/16 01:03:01;;;;;;;29.92;18.23;;;9.00;96.90;;;;;;5069021;28;20032;-43
2020/12/16 01:05:26;;;;;;;37.15;18.55;;;9.00;96.90;;;;;;5068781;28;20070;-43
2020/12/16 01:07:52;;;;;;;32.28;19.42;;;9.00;96.90;;;;;;5069265;28;20028;-43
2020/12/16 01:10:18;;;;;;;29.20;19.60;;;8.90;96.90;;;;;;5068505;28;20032;-43
2020/12/16 01:12:46;;;;;;;29.95;19.50;;;8.90;96.90;;;;;;5069171;28;20017;-43
2020/12/16 01:15:17;;;;;;;28.60;18.23;;;8.90;97.00;;;;;;5068389;28;20488;-42
2020/12/16 01:17:44;;;;;;;32.20;19.60;;;9.00;97.00;;;;;;5069124;28;20021;-42
2020/12/16 01:20:10;;;;;;;34.92;19.83;;;9.00;97.00;;;;;;5068178;28;20054;-42
2020/12/16 01:22:43;;;;;;;32.90;19.27;;;9.00;96.90;;;;;;5069301;28;20043;-43
2020/12/16 01:25:09;;;;;;;35.72;21.45;;;9.00;96.90;;;;;;5068078;28;20036;-43
2020/12/16 01:27:35;;;;;;;40.15;21.27;;;9.00;96.90;;;;;;5068668;28;20145;-42
2020/12/16 01:30:03;;;;;;;35.38;20.85;;;9.00;96.80;;;;;;5068680;28;20411;-43
2020/12/16 01:32:28;;;;;;;34.83;21.58;;;9.00;96.80;;;;;;5068097;28;20751;-43
2020/12/16 01:34:54;;;;;;;36.90;22.48;;;9.00;96.80;;;;;;5068426;28;20025;-42
2020/12/16 01:37:20;;;;;;;44.03;21.55;;;9.00;96.70;;;;;;5068578;28;20032;-42
2020/12/16 01:39:45;;;;;;;39.50;21.60;;;9.00;96.70;;;;;;5067477;28;20036;-43
2020/12/16 01:42:13;;;;;;;39.33;22.65;;;9.00;96.70;;;;;;5067354;28;20090;-42
2020/12/16 01:44:39;;;;;;;33.75;21.08;;;9.10;96.70;;;;;;5068623;28;20039;-43
2020/12/16 01:47:04;;;;;;;35.53;20.63;;;9.00;96.70;;;;;;5068424;28;20037;-43
2020/12/16 01:49:30;;;;;;;40.20;20.75;;;9.00;96.70;;;;;;5067520;28;20037;-42
2020/12/16 01:51:58;;;;;;;35.65;20.08;;;9.00;96.70;;;;;;5068511;28;20434;-43
2020/12/16 01:54:25;;;;;;;30.83;19.27;;;9.00;96.60;;;;;;5067837;28;20035;-42
2020/12/16 01:56:54;;;;;;;25.17;18.30;;;9.00;96.60;;;;;;5067457;28;20492;-42
2020/12/16 01:59:20;;;;;;;26.02;17.42;;;9.00;96.70;;;;;;5067741;28;20039;-43
2020/12/16 02:01:50;;;;;;;37.50;17.80;;;9.00;96.70;;;;;;5068816;28;20024;-42
2020/12/16 02:04:21;;;;;;;24.27;16.25;;;9.00;96.70;;;;;;5067323;28;20034;-42
2020/12/16 02:06:50;;;;;;;28.00;16.67;;;9.00;96.70;;;;;;5068126;28;20040;-43
2020/12/16 02:09:18;;;;;;;26.35;16.23;;;8.90;96.70;;;;;;5067245;28;20025;-43
2020/12/16 02:11:43;;;;;;;30.38;17.55;;;8.90;96.70;;;;;;5067818;28;20021;-42
2020/12/16 02:14:10;;;;;;;28.92;17.58;;;8.90;96.80;;;;;;5067297;28;20082;-42
2020/12/16 02:16:36;;;;;;;41.38;19.05;;;8.90;96.80;;;;;;5067312;28;20507;-43
2020/12/16 02:19:04;;;;;;;31.77;19.23;;;8.90;96.80;;;;;;5068025;28;20024;-42
2020/12/16 02:21:29;;;;;;;34.60;18.88;;;8.90;96.70;;;;;;5067027;28;20506;-43
2020/12/16 02:24:06;;;;;;;32.92;20.13;;;8.90;96.70;;;;;;5067333;28;20020;-43
2020/12/16 02:26:37;;;;;;;40.72;21.17;;;8.90;96.70;;;;;;5067412;28;20037;-43
2020/12/16 02:29:04;;;;;;;40.15;20.02;;;8.90;96.70;;;;;;5067717;28;20082;-40
2020/12/16 02:31:31;;;;;;;35.05;19.63;;;8.90;96.60;;;;;;5066445;28;20617;-42
2020/12/16 02:33:57;;;;;;;34.08;18.48;;;8.90;96.60;;;;;;5067494;28;20476;-43
2020/12/16 02:36:22;;;;;;;36.85;21.92;;;8.90;96.60;;;;;;5067140;28;20116;-42
2020/12/16 02:38:48;;;;;;;46.97;22.65;;;8.90;96.60;;;;;;5066846;28;20031;-43
2020/12/16 02:41:14;;;;;;;42.85;22.27;;;8.80;96.60;;;;;;5067335;28;20103;-43
2020/12/16 02:43:40;;;;;;;45.10;22.05;;;8.80;96.50;;;;;;5067121;28;20111;-42
2020/12/16 02:46:05;;;;;;;35.38;20.88;;;8.80;96.50;;;;;;5066896;28;20037;-43
2020/12/16 02:48:31;;;;;;;35.38;21.65;;;8.70;96.40;;;;;;5067362;28;20099;-42
2020/12/16 02:50:57;;;;;;;38.83;21.75;;;8.70;96.50;;;;;;5066834;28;20796;-43
2020/12/16 02:53:22;;;;;;;44.08;21.92;;;8.70;96.50;;;;;;5066174;28;20028;-42
2020/12/16 02:55:47;;;;;;;57.35;21.45;;;8.70;96.50;;;;;;5067283;28;20097;-41
2020/12/16 02:58:13;;;;;;;38.13;21.23;;;8.60;96.50;;;;;;5066678;28;20380;-42
2020/12/16 03:00:39;;;;;;;48.28;22.77;;;8.70;96.60;;;;;;5066705;28;20027;-43
2020/12/16 03:03:04;;;;;;;39.85;22.85;;;8.70;96.50;;;;;;5067540;28;20028;-44
2020/12/16 03:05:29;;;;;;;41.20;22.73;;;8.60;96.50;;;;;;5065964;28;20041;-43
2020/12/16 03:07:55;;;;;;;64.30;23.83;;;8.60;96.50;;;;;;5066937;28;20096;-42
2020/12/16 03:10:20;;;;;;;38.92;22.75;;;8.60;96.50;;;;;;5066267;28;20045;-42
2020/12/16 03:12:46;;;;;;;56.45;23.27;;;8.50;96.40;;;;;;5066585;28;20039;-42
2020/12/16 03:15:11;;;;;;;47.55;20.52;;;8.50;96.40;;;;;;5066868;28;20472;-42
2020/12/16 03:17:37;;;;;;;36.58;19.85;;;8.50;96.50;;;;;;5066846;28;20074;-43
2020/12/16 03:20:03;;;;;;;28.25;18.00;;;8.40;96.40;;;;;;5066463;28;20032;-43
2020/12/16 03:22:29;;;;;;;36.72;19.23;;;8.40;96.40;;;;;;5066655;28;20480;-42
2020/12/16 03:24:55;;;;;;;32.40;17.52;;;8.40;96.50;;;;;;5066849;28;20116;-43
2020/12/16 03:27:20;;;;;;;29.52;20.30;;;8.30;96.50;;;;;;5065952;28;20040;-43
2020/12/16 03:29:46;;;;;;;37.00;18.70;;;8.30;96.50;;;;;;5067265;28;20592;-43
2020/12/16 03:32:11;;;;;;;37.60;21.05;;;8.30;96.50;;;;;;5066229;28;20452;-42
2020/12/16 03:34:37;;;;;;;27.83;19.55;;;8.30;96.50;;;;;;5066250;28;20017;-43
2020/12/16 03:37:03;;;;;;;23.05;17.15;;;8.30;96.60;;;;;;5066902;28;20028;-42
2020/12/16 03:39:28;;;;;;;25.77;17.48;;;8.20;96.50;;;;;;5066262;28;20021;-42
2020/12/16 03:41:54;;;;;;;36.10;18.52;;;8.20;96.50;;;;;;5066314;28;20112;-43
2020/12/16 03:44:19;;;;;;;21.50;17.90;;;8.20;96.60;;;;;;5066257;28;20243;-42
2020/12/16 03:46:45;;;;;;;29.85;17.73;;;8.20;96.60;;;;;;5066766;28;20098;-43
2020/12/16 03:49:10;;;;;;;31.38;19.25;;;8.20;96.60;;;;;;5065878;28;20111;-42
2020/12/16 03:51:36;;;;;;;24.55;18.38;;;8.20;96.60;;;;;;5066503;28;20391;-42
2020/12/16 03:54:01;;;;;;;37.30;19.58;;;8.20;96.50;;;;;;5067120;28;20384;-43
2020/12/16 03:56:27;;;;;;;32.90;18.75;;;8.20;96.50;;;;;;5065367;28;20597;-42
2020/12/16 03:58:52;;;;;;;27.10;17.00;;;8.20;96.50;;;;;;5066582;28;20097;-43
2020/12/16 04:01:19;;;;;;;35.45;17.13;;;8.20;96.50;;;;;;5066180;28;20483;-43
2020/12/16 04:03:48;;;;;;;35.95;17.30;;;8.20;96.60;;;;;;5067374;28;20020;-43
2020/12/16 04:06:14;;;;;;;23.52;16.48;;;8.10;96.60;;;;;;5069554;28;20036;-42
2020/12/16 04:08:40;;;;;;;28.67;16.55;;;8.20;96.60;;;;;;5070346;28;20029;-42
2020/12/16 04:11:24;;;;;;;35.90;19.98;;;8.10;96.50;;;;;;5070051;28;20056;-42
2020/12/16 04:13:50;;;;;;;31.95;19.95;;;8.20;96.50;;;;;;5070336;28;20036;-42
2020/12/16 04:16:20;;;;;;;30.30;17.80;;;8.10;96.40;;;;;;5069290;28;20036;-41
2020/12/16 04:18:47;;;;;;;34.30;16.70;;;8.10;96.50;;;;;;5070427;28;20059;-42
2020/12/16 04:21:14;;;;;;;47.88;20.13;;;8.10;96.50;;;;;;5069684;28;20063;-44
2020/12/16 04:23:40;;;;;;;30.92;18.83;;;8.10;96.60;;;;;;5069677;28;20025;-42
2020/12/16 04:26:06;;;;;;;37.75;19.27;;;8.10;96.50;;;;;;5069937;28;20044;-42
2020/12/16 04:28:33;;;;;;;27.60;16.85;;;8.10;96.60;;;;;;5069357;28;20519;-43
2020/12/16 04:31:00;;;;;;;33.38;16.80;;;8.10;96.60;;;;;;5069370;28;20476;-43
2020/12/16 04:33:25;;;;;;;30.50;18.17;;;8.10;96.60;;;;;;5069478;28;20031;-42
2020/12/16 04:35:51;;;;;;;31.55;18.02;;;8.10;96.60;;;;;;5070078;28;20028;-42
2020/12/16 04:38:17;;;;;;;42.33;18.52;;;8.10;96.60;;;;;;5068861;28;20033;-43
2020/12/16 04:40:43;;;;;;;27.02;20.35;;;8.10;96.60;;;;;;5069694;28;20162;-43
2020/12/16 04:43:10;;;;;;;38.47;18.70;;;8.10;96.60;;;;;;5069230;28;20104;-43
2020/12/16 04:45:40;;;;;;;32.47;20.33;;;8.10;96.60;;;;;;5069480;28;20248;-42
2020/12/16 04:48:06;;;;;;;30.75;19.90;;;8.10;96.60;;;;;;5069735;28;20100;-42
2020/12/16 04:50:32;;;;;;;32.85;19.83;;;8.10;96.50;;;;;;5069388;28;20127;-42
2020/12/16 04:53:04;;;;;;;28.23;20.63;;;8.10;96.60;;;;;;5069234;28;20032;-42
2020/12/16 04:55:31;;;;;;;37.17;18.95;;;8.10;96.60;;;;;;5068701;28;20028;-42
2020/12/16 04:58:00;;;;;;;43.70;21.35;;;8.00;96.60;;;;;;5069060;28;20021;-43
2020/12/16 05:00:26;;;;;;;36.63;20.58;;;8.00;96.60;;;;;;5068895;28;20834;-42
2020/12/16 05:02:57;;;;;;;35.13;21.88;;;8.00;96.60;;;;;;5069221;28;20020;-42
2020/12/16 05:05:24;;;;;;;31.77;21.70;;;8.00;96.60;;;;;;5068117;28;20461;-42
2020/12/16 05:07:50;;;;;;;35.25;21.85;;;8.00;96.60;;;;;;5069395;28;20028;-42
2020/12/16 05:10:29;;;;;;;38.33;23.08;;;8.00;96.60;;;;;;5068994;28;20027;-43
2020/12/16 05:13:05;;;;;;;30.73;22.65;;;8.00;96.60;;;;;;5068617;28;20024;-42
2020/12/16 05:15:31;;;;;;;34.13;21.85;;;8.00;96.60;;;;;;5068484;28;20766;-43
2020/12/16 05:18:16;;;;;;;36.33;23.08;;;7.90;96.60;;;;;;5069504;28;20120;-43
2020/12/16 05:20:50;;;;;;;27.83;21.92;;;8.00;96.70;;;;;;5068846;28;20450;-42
2020/12/16 05:23:17;;;;;;;29.73;21.38;;;8.00;96.70;;;;;;5068444;28;20074;-43
2020/12/16 05:26:05;;;;;;;35.97;24.05;;;8.00;96.70;;;;;;5069202;28;20094;-42
2020/12/16 05:28:45;;;;;;;32.58;22.98;;;8.00;96.80;;;;;;5069179;28;20052;-43
2020/12/16 05:31:12;;;;;;;37.55;22.95;;;8.00;96.70;;;;;;5068451;28;20111;-42
2020/12/16 05:33:42;;;;;;;33.47;23.08;;;8.00;96.70;;;;;;5068560;28;20123;-43
2020/12/16 05:36:09;;;;;;;36.28;21.45;;;8.00;96.70;;;;;;5068506;28;20107;-43
2020/12/16 05:38:56;;;;;;;28.17;20.33;;;8.00;96.70;;;;;;5069252;28;20142;-42
2020/12/16 05:41:29;;;;;;;27.60;20.08;;;8.00;96.70;;;;;;5067057;28;20813;-42
2020/12/16 05:44:18;;;;;;;27.42;20.27;;;7.90;96.80;;;;;;5068903;28;20032;-42
2020/12/16 05:46:44;;;;;;;27.77;19.60;;;7.90;96.80;;;;;;5069089;28;20029;-43
2020/12/16 05:49:23;;;;;;;24.92;19.50;;;7.90;96.80;;;;;;5067732;28;20035;-43
2020/12/16 05:52:03;;;;;;;30.05;20.00;;;7.90;96.80;;;;;;5068494;28;20070;-43
2020/12/16 05:54:30;;;;;;;24.08;17.85;;;7.90;96.70;;;;;;5067421;28;20074;-42
2020/12/16 05:57:21;;;;;;;22.83;17.10;;;7.90;96.80;;;;;;5068566;28;20048;-42
2020/12/16 06:00:14;;;;;;;22.52;17.38;;;7.90;97.00;;;;;;5068571;28;20032;-42
2020/12/16 06:02:44;;;;;;;21.85;15.90;;;7.80;96.80;;;;;;5067934;28;20024;-43
2020/12/16 06:05:12;;;;;;;22.88;16.55;;;7.80;96.80;;;;;;5067941;28;20459;-43
2020/12/16 06:07:45;;;;;;;23.75;16.95;;;7.80;96.70;;;;;;5068191;28;20052;-43
2020/12/16 06:10:11;;;;;;;19.90;15.75;;;7.70;96.70;;;;;;5067210;28;20028;-43
2020/12/16 06:12:39;;;;;;;20.42;16.65;;;7.60;96.80;;;;;;5068481;28;20024;-42
2020/12/16 06:15:13;;;;;;;26.73;17.50;;;7.60;96.80;;;;;;5067995;28;20488;-43
2020/12/16 06:17:44;;;;;;;27.15;18.02;;;7.60;96.80;;;;;;5067821;28;20027;-43
2020/12/16 06:20:14;;;;;;;22.88;17.20;;;7.50;96.80;;;;;;5067814;28;20029;-43
2020/12/16 06:22:44;;;;;;;36.78;20.10;;;7.50;96.80;;;;;;5067814;28;20092;-44
2020/12/16 06:25:15;;;;;;;29.33;20.90;;;7.40;96.80;;;;;;5067314;28;20147;-42
2020/12/16 06:27:46;;;;;;;32.80;21.33;;;7.40;96.80;;;;;;5067377;28;20032;-43
2020/12/16 06:30:34;;;;;;;34.45;21.30;;;7.30;96.70;;;;;;5067055;28;20081;-43
2020/12/16 06:33:12;;;;;;;26.08;19.30;;;7.30;96.80;;;;;;5067922;28;20654;-42
2020/12/16 06:35:39;;;;;;;26.23;19.70;;;7.20;96.80;;;;;;5067579;28;20105;-42
2020/12/16 06:38:22;;;;;;;28.17;19.95;;;7.20;96.80;;;;;;5067677;28;20636;-42
2020/12/16 06:40:53;;;;;;;22.42;16.77;;;7.10;96.80;;;;;;5067628;28;20503;-43
2020/12/16 06:43:30;;;;;;;26.65;19.15;;;7.00;96.80;;;;;;5067080;28;20028;-43
2020/12/16 06:45:56;;;;;;;23.92;18.67;;;7.00;96.90;;;;;;5067647;28;20036;-42
2020/12/16 06:48:35;;;;;;;26.70;19.85;;;6.90;96.90;;;;;;5066871;28;20093;-42
2020/12/16 06:51:24;;;;;;;24.05;19.05;;;6.90;96.90;;;;;;5067187;28;20025;-42
2020/12/16 06:54:03;;;;;;;27.20;19.75;;;6.90;97.00;;;;;;5067583;28;20020;-42
2020/12/16 06:56:29;;;;;;;25.50;20.50;;;6.80;97.00;;;;;;5063385;28;20049;-43
2020/12/16 06:58:55;;;;;;;28.38;21.13;;;6.80;97.00;;;;;;5049072;28;20025;-44
2020/12/16 07:01:21;;;;;;;26.75;20.38;;;6.80;97.10;;;;;;5045044;28;20044;-42
2020/12/16 07:03:46;;;;;;;24.73;18.92;;;6.70;97.10;;;;;;5045620;28;20037;-43
2020/12/16 07:06:36;;;;;;;22.63;17.80;;;6.70;97.10;;;;;;5045416;28;20044;-43
2020/12/16 07:09:21;;;;;;;23.42;17.48;;;6.70;97.10;;;;;;5031293;28;20551;-45
2020/12/16 07:11:54;;;;;;;23.42;17.25;;;6.70;97.10;;;;;;5045865;28;20078;-40
2020/12/16 07:14:25;;;;;;;23.30;18.00;;;6.60;97.10;;;;;;5045789;28;20685;-42
2020/12/16 07:16:51;;;;;;;20.77;16.45;;;6.60;97.10;;;;;;5046272;28;20032;-44
2020/12/16 07:19:28;;;;;;;20.80;15.75;;;6.60;97.10;;;;;;5045928;28;20044;-44
2020/12/16 07:21:57;;;;;;;22.50;16.95;;;6.60;97.20;;;;;;5046064;28;20484;-43
2020/12/16 07:24:23;;;;;;;21.63;16.58;;;6.50;97.10;;;;;;5046292;28;20115;-44
2020/12/16 07:26:55;;;;;;;23.60;16.38;;;6.60;97.10;;;;;;5066090;28;20033;-44
2020/12/16 07:29:38;;;;;;;23.75;17.25;;;6.50;97.10;;;;;;5066106;28;20090;-43
2020/12/16 07:32:13;;;;;;;24.30;17.50;;;6.50;97.10;;;;;;5060174;28;20129;-43
2020/12/16 07:34:41;;;;;;;26.23;18.60;;;6.50;97.20;;;;;;5066395;28;20043;-43
2020/12/16 07:37:08;;;;;;;22.67;16.52;;;6.50;97.20;;;;;;5067533;28;20029;-42
2020/12/16 07:39:34;;;;;;;26.45;18.80;;;6.50;97.20;;;;;;5071121;28;20045;-43
2020/12/16 07:42:00;;;;;;;23.00;17.05;;;6.50;97.20;;;;;;5070540;28;20020;-43
2020/12/16 07:44:27;;;;;;;25.08;18.23;;;6.50;97.20;;;;;;5070624;28;20032;-43
2020/12/16 07:47:03;;;;;;;24.83;17.35;;;6.40;97.20;;;;;;5070583;28;20044;-42
2020/12/16 07:49:29;;;;;;;22.95;16.90;;;6.40;97.30;;;;;;5070662;28;20028;-43
2020/12/16 07:52:02;;;;;;;22.67;16.30;;;6.40;97.30;;;;;;5071318;28;20035;-43
2020/12/16 07:54:29;;;;;;;19.80;15.70;;;6.40;97.30;;;;;;5069711;28;20032;-42
2020/12/16 07:56:55;;;;;;;18.67;14.27;;;6.40;97.30;;;;;;5070343;28;20063;-43
2020/12/16 07:59:25;;;;;;;20.30;14.25;;;6.40;97.30;;;;;;5070133;28;20028;-42
2020/12/16 08:01:51;;;;;;;22.00;15.05;;;6.40;97.30;;;;;;5070216;28;20032;-44
2020/12/16 08:04:16;;;;;;;20.48;14.85;;;6.50;97.40;;;;;;5070180;28;20029;-43
2020/12/16 08:06:42;;;;;;;18.35;14.60;;;6.40;97.40;;;;;;5070341;28;20492;-43
2020/12/16 08:09:08;;;;;;;19.65;14.32;;;6.40;97.40;;;;;;5069336;28;20024;-43
2020/12/16 08:11:34;;;;;;;16.95;13.43;;;6.50;97.40;;;;;;5070634;28;20028;-42
2020/12/16 08:14:07;;;;;;;16.52;13.20;;;6.50;97.40;;;;;;5070373;28;20020;-44
2020/12/16 08:16:34;;;;;;;17.50;13.23;;;6.50;97.40;;;;;;5070214;28;20020;-43
2020/12/16 08:19:00;;;;;;;20.40;14.32;;;6.50;97.70;;;;;;5070441;28;20081;-44
2020/12/16 08:21:26;;;;;;;18.67;15.23;;;6.50;97.40;;;;;;5070200;28;20024;-43
2020/12/16 08:23:53;;;;;;;21.27;15.48;;;6.50;97.40;;;;;;5069719;28;20031;-43
2020/12/16 08:26:20;;;;;;;21.23;16.10;;;6.50;97.50;;;;;;5069363;28;20037;-42
2020/12/16 08:28:46;;;;;;;23.65;16.00;;;6.60;97.50;;;;;;5070165;28;20024;-44
2020/12/16 08:31:15;;;;;;;22.50;17.33;;;6.50;97.50;;;;;;5069103;28;20043;-42
2020/12/16 08:33:44;;;;;;;21.17;16.25;;;6.50;97.50;;;;;;5070358;28;20040;-43
2020/12/16 08:36:14;;;;;;;20.85;17.08;;;6.60;97.50;;;;;;5068705;28;20040;-44
2020/12/16 08:38:43;;;;;;;21.55;17.13;;;6.60;97.50;;;;;;5070008;28;20037;-43
2020/12/16 08:41:11;;;;;;;20.88;16.27;;;6.60;97.50;;;;;;5069427;28;20021;-43
2020/12/16 08:43:39;;;;;;;20.60;16.52;;;6.60;97.80;;;;;;5069611;28;20032;-41
2020/12/16 08:46:17;;;;;;;18.95;15.52;;;6.60;97.60;;;;;;5070056;28;20098;-43
2020/12/16 08:48:52;;;;;;;17.88;14.30;;;6.60;97.60;;;;;;5069267;28;20230;-43
2020/12/16 08:51:23;;;;;;;19.45;14.45;;;6.60;97.60;;;;;;5069004;28;20480;-44
2020/12/16 08:53:53;;;;;;;18.63;14.50;;;6.60;97.60;;;;;;5069705;28;20020;-43
2020/12/16 08:56:40;;;;;;;17.25;13.40;;;6.70;97.60;;;;;;5068979;28;20060;-44
2020/12/16 08:59:17;;;;;;;16.40;12.13;;;6.70;97.70;;;;;;5068728;28;20790;-43
2020/12/16 09:01:45;;;;;;;17.80;13.48;;;6.70;97.70;;;;;;5069649;28;20028;-42
2020/12/16 09:04:22;;;;;;;18.27;12.75;;;6.80;97.80;;;;;;5068187;28;20510;-44
2020/12/16 09:07:04;;;;;;;15.45;12.65;;;6.80;97.80;;;;;;5069393;28;20040;-44
2020/12/16 09:09:31;;;;;;;16.38;11.25;;;6.90;97.70;;;;;;5064684;28;20467;-42
2020/12/16 09:11:56;;;;;;;15.30;11.48;;;6.90;97.70;;;;;;5050338;28;20032;-42
2020/12/16 09:14:23;;;;;;;13.82;11.55;;;6.90;97.60;;;;;;5064959;28;20105;-43
2020/12/16 09:16:49;;;;;;;15.23;10.68;;;6.90;97.60;;;;;;5048154;28;20033;-42
2020/12/16 09:19:23;;;;;;;15.50;12.20;;;6.90;97.60;;;;;;5048182;28;20714;-43
2020/12/16 09:21:49;;;;;;;14.23;10.93;;;6.90;97.60;;;;;;5048517;28;20152;-42
2020/12/16 09:24:23;;;;;;;15.98;11.75;;;6.90;97.60;;;;;;5045076;28;20040;-43
2020/12/16 09:26:50;;;;;;;14.32;10.95;;;6.80;97.50;;;;;;5045116;28;20037;-44
2020/12/16 09:29:21;;;;;;;12.38;10.50;;;6.80;97.50;;;;;;5048560;28;20049;-42
2020/12/16 09:31:49;;;;;;;14.32;10.18;;;6.90;97.60;;;;;;5049133;28;20048;-42
2020/12/16 09:34:15;;;;;;;13.35;9.98;;;6.80;97.60;;;;;;5047427;28;20025;-43
2020/12/16 09:36:41;;;;;;;12.02;9.45;;;6.90;97.70;;;;;;5048986;28;20094;-42
2020/12/16 09:39:10;;;;;;;13.20;9.55;;;6.90;97.70;;;;;;5048848;28;20381;-43
2020/12/16 09:41:47;;;;;;;15.18;11.05;;;6.90;97.70;;;;;;5048146;28;20029;-42
2020/12/16 09:44:26;;;;;;;13.52;10.00;;;7.00;97.70;;;;;;5047953;28;20056;-42
2020/12/16 09:46:52;;;;;;;13.95;10.73;;;7.00;97.70;;;;;;5048075;28;20033;-43
2020/12/16 09:49:19;;;;;;;12.85;10.88;;;7.00;97.70;;;;;;5048242;28;20025;-41
2020/12/16 09:51:45;;;;;;;13.75;10.80;;;7.10;97.70;;;;;;5048548;28;20366;-43
2020/12/16 09:54:10;;;;;;;12.23;10.77;;;7.10;97.70;;;;;;5047157;28;20036;-43
2020/12/16 09:56:36;;;;;;;14.32;11.02;;;7.10;97.80;;;;;;5048292;28;20053;-43
2020/12/16 09:59:02;;;;;;;13.60;10.70;;;7.20;97.80;;;;;;5048821;28;20029;-43
2020/12/16 10:01:28;;;;;;;12.43;9.85;;;7.20;97.80;;;;;;5045243;28;20039;-43
2020/12/16 10:03:53;;;;;;;12.55;10.65;;;7.20;97.80;;;;;;5048377;28;20036;-44
2020/12/16 10:06:19;;;;;;;11.88;9.25;;;7.30;97.80;;;;;;5047976;28;20029;-43
2020/12/16 10:08:45;;;;;;;9.60;8.23;;;7.30;97.80;;;;;;5047593;28;20750;-43
2020/12/16 10:11:14;;;;;;;10.70;8.80;;;7.30;97.80;;;;;;5047550;28;20033;-43
2020/12/16 10:13:43;;;;;;;9.82;8.43;;;7.40;97.80;;;;;;5048229;28;20100;-43
2020/12/16 10:16:09;;;;;;;11.40;9.10;;;7.40;97.80;;;;;;5046963;28;20063;-43
2020/12/16 10:18:35;;;;;;;11.38;9.90;;;7.50;97.80;;;;;;5047848;28;20801;-43
2020/12/16 10:21:03;;;;;;;15.23;9.75;;;7.50;97.70;;;;;;5048154;28;20033;-43
2020/12/16 10:23:29;;;;;;;12.80;9.40;;;7.60;97.80;;;;;;5046532;28;20477;-44
2020/12/16 10:25:54;;;;;;;13.35;10.23;;;7.60;97.80;;;;;;5055585;28;20047;-43
2020/12/16 10:28:21;;;;;;;12.45;10.02;;;7.70;98.00;;;;;;5050143;28;20031;-43
2020/12/16 10:30:48;;;;;;;12.52;10.30;;;7.80;98.00;;;;;;5057941;28;20028;-44
2020/12/16 10:33:15;;;;;;;12.77;9.45;;;7.90;97.90;;;;;;5057174;28;20101;-44
2020/12/16 10:35:40;;;;;;;15.05;10.57;;;8.00;97.80;;;;;;5057287;28;20393;-43
2020/12/16 10:38:06;;;;;;;12.52;10.77;;;8.10;97.70;;;;;;5056037;28;20566;-43
2020/12/16 10:40:31;;;;;;;12.27;10.63;;;8.10;97.70;;;;;;5057641;28;20025;-44
2020/12/16 10:42:59;;;;;;;12.90;10.50;;;8.10;97.70;;;;;;5057029;28;20021;-42
2020/12/16 10:45:25;;;;;;;12.73;10.45;;;8.10;97.70;;;;;;5047256;28;20044;-42
2020/12/16 10:47:59;;;;;;;13.00;10.90;;;8.10;97.70;;;;;;5047354;28;20453;-41
2020/12/16 10:50:25;;;;;;;12.23;10.32;;;8.20;97.70;;;;;;5046537;28;20025;-43
2020/12/16 10:52:51;;;;;;;12.65;10.73;;;8.20;97.70;;;;;;5047910;28;20013;-43
2020/12/16 10:55:17;;;;;;;15.90;12.18;;;8.20;97.60;;;;;;5046991;28;20070;-42
2020/12/16 10:57:42;;;;;;;13.25;10.77;;;8.20;97.60;;;;;;5046984;28;20053;-43
2020/12/16 11:00:08;;;;;;;12.38;10.45;;;8.30;97.70;;;;;;5046875;28;20025;-43
2020/12/16 11:02:33;;;;;;;14.02;11.77;;;8.30;97.60;;;;;;5047352;28;20396;-43
2020/12/16 11:04:59;;;;;;;15.63;11.88;;;8.30;97.70;;;;;;5047010;28;20032;-42
2020/12/16 11:07:24;;;;;;;17.88;12.38;;;8.30;97.70;;;;;;5046831;28;20492;-43
2020/12/16 11:09:50;;;;;;;14.70;11.90;;;8.30;97.70;;;;;;5047112;28;20475;-43
2020/12/16 11:12:15;;;;;;;17.70;12.75;;;8.40;97.70;;;;;;5045930;28;20029;-42
2020/12/16 11:14:41;;;;;;;13.50;11.25;;;8.40;97.70;;;;;;5047360;28;20112;-43
2020/12/16 11:17:08;;;;;;;16.60;12.45;;;8.50;97.70;;;;;;5046801;28;20025;-43
2020/12/16 11:19:34;;;;;;;14.45;11.32;;;8.50;97.70;;;;;;5062261;28;20078;-42
2020/12/16 11:21:59;;;;;;;14.82;12.00;;;8.50;97.70;;;;;;5067071;28;20033;-42
2020/12/16 11:24:25;;;;;;;12.48;9.77;;;8.60;97.70;;;;;;5066466;28;20278;-43
2020/12/16 11:26:52;;;;;;;10.70;8.88;;;8.60;97.70;;;;;;5066963;28;20163;-43
2020/12/16 11:29:21;;;;;;;10.32;8.75;;;8.70;97.70;;;;;;5066145;28;20024;-43
2020/12/16 11:31:49;;;;;;;11.00;8.82;;;8.70;97.70;;;;;;5054866;28;20521;-42
2020/12/16 11:34:16;;;;;;;12.63;9.15;;;8.70;97.70;;;;;;5026557;28;20044;-42
2020/12/16 11:36:44;;;;;;;11.60;8.55;;;8.80;97.70;;;;;;5027019;28;20025;-42
2020/12/16 11:39:10;;;;;;;9.98;7.97;;;8.90;97.60;;;;;;5026173;28;20064;-43
2020/12/16 11:41:36;;;;;;;9.82;8.30;;;8.90;97.50;;;;;;5026926;28;20623;-42
2020/12/16 11:44:03;;;;;;;11.95;8.60;;;8.90;97.50;;;;;;5027018;28;20397;-43
2020/12/16 11:46:30;;;;;;;10.23;8.20;;;8.90;97.40;;;;;;5025752;28;20096;-43
2020/12/16 11:48:57;;;;;;;11.13;8.57;;;9.00;97.40;;;;;;5027186;28;20037;-43
2020/12/16 11:51:24;;;;;;;11.18;9.05;;;9.00;97.40;;;;;;5026373;28;20068;-41
2020/12/16 11:53:49;;;;;;;9.23;8.18;;;9.00;97.30;;;;;;5026123;28;20034;-43
2020/12/16 11:56:15;;;;;;;10.07;7.78;;;9.00;97.30;;;;;;5026035;28;20099;-43
2020/12/16 11:58:40;;;;;;;7.93;6.80;;;9.00;97.30;;;;;;5026770;28;20025;-43
2020/12/16 12:01:06;;;;;;;8.45;7.65;;;9.00;97.30;;;;;;5026027;28;20457;-42
2020/12/16 12:03:31;;;;;;;9.63;8.13;;;9.00;97.40;;;;;;5026976;28;20076;-42
2020/12/16 12:05:57;;;;;;;11.65;9.15;;;9.00;97.40;;;;;;5026719;28;20485;-43
2020/12/16 12:08:22;;;;;;;9.65;8.38;;;9.00;97.40;;;;;;5025466;28;20059;-42
2020/12/16 12:10:48;;;;;;;13.68;9.60;;;9.00;97.40;;;;;;5027011;28;20033;-41
2020/12/16 12:13:14;;;;;;;14.20;11.13;;;9.00;97.40;;;;;;5026147;28;20038;-42
2020/12/16 12:15:39;;;;;;;15.27;11.75;;;9.10;97.40;;;;;;5026153;28;20034;-42
2020/12/16 12:18:05;;;;;;;12.20;10.30;;;9.10;97.40;;;;;;5039342;28;20040;-43
2020/12/16 12:20:30;;;;;;;12.90;10.60;;;9.10;97.40;;;;;;5055864;28;20090;-41
2020/12/16 12:22:56;;;;;;;14.63;11.15;;;9.20;97.40;;;;;;5056635;28;20033;-42
2020/12/16 12:25:21;;;;;;;11.90;9.95;;;9.20;97.40;;;;;;5056604;28;20036;-44
2020/12/16 12:27:47;;;;;;;12.30;9.60;;;9.20;97.30;;;;;;5060249;28;20069;-43
2020/12/16 12:30:13;;;;;;;12.88;9.10;;;9.20;97.30;;;;;;5057253;28;20468;-42
2020/12/16 12:32:38;;;;;;;10.95;9.20;;;9.20;97.30;;;;;;5050037;28;20055;-43
2020/12/16 12:35:04;;;;;;;10.80;9.25;;;9.20;97.30;;;;;;5060247;28;20490;-43
2020/12/16 12:37:29;;;;;;;9.77;8.63;;;9.20;97.30;;;;;;5058413;28;20051;-42
2020/12/16 12:39:55;;;;;;;10.25;9.15;;;9.20;97.40;;;;;;5059510;28;20021;-43
2020/12/16 12:42:21;;;;;;;11.40;9.00;;;9.30;97.40;;;;;;5068096;28;20029;-43
2020/12/16 12:44:46;;;;;;;11.07;8.80;;;9.30;97.40;;;;;;5069955;28;20630;-41